createdAt,value
2023-04-11T00:00:15.318Z,14.82
2023-04-11T00:02:48.327Z,13.90
2023-04-11T00:05:20.333Z,13.73
2023-04-11T00:07:51.975Z,16.25
2023-04-11T00:10:26.542Z,14.23
2023-04-11T00:12:58.771Z,13.32
2023-04-11T00:15:31.078Z,14.00
2023-04-11T00:18:02.536Z,14.30
2023-04-11T00:20:33.581Z,13.77
2023-04-11T00:23:05.360Z,14.75
2023-04-11T00:25:41.569Z,14.13
2023-04-11T00:28:13.507Z,13.57
2023-04-11T00:30:45.035Z,15.05
2023-04-11T00:33:17.672Z,15.68
2023-04-11T00:35:49.778Z,14.55
2023-04-11T00:38:22.142Z,14.98
2023-04-11T00:40:54.045Z,15.02
2023-04-11T00:43:25.567Z,15.20
2023-04-11T00:45:56.369Z,15.82
2023-04-11T00:48:29.588Z,16.23
2023-04-11T00:51:01.091Z,15.25
2023-04-11T00:53:34.101Z,15.80
2023-04-11T00:56:05.508Z,15.65
2023-04-11T00:58:39.094Z,16.33
2023-04-11T01:01:10.558Z,15.48
2023-04-11T01:03:43.242Z,16.05
2023-04-11T01:06:16.558Z,14.98
2023-04-11T01:08:52.160Z,15.82
2023-04-11T01:11:25.083Z,15.18
2023-04-11T01:13:57.915Z,14.90
2023-04-11T01:16:30.192Z,15.95
2023-04-11T01:19:01.613Z,15.60
2023-04-11T01:21:34.023Z,15.35
2023-04-11T01:24:06.036Z,15.13
2023-04-11T01:26:37.210Z,14.73
2023-04-11T01:29:08.765Z,15.15
2023-04-11T01:31:40.494Z,14.73
2023-04-11T01:34:15.078Z,16.58
2023-04-11T01:36:47.065Z,21.10
2023-04-11T01:39:18.465Z,19.85
2023-04-11T01:41:50.607Z,21.50
2023-04-11T01:44:23.754Z,19.33
2023-04-11T01:46:56.970Z,18.10
2023-04-11T01:49:28.345Z,18.52
2023-04-11T01:52:00.254Z,19.33
2023-04-11T01:54:31.992Z,17.70
2023-04-11T01:57:05.790Z,17.70
2023-04-11T01:59:37.144Z,18.00
2023-04-11T02:02:08.683Z,17.80
2023-04-11T02:04:40.625Z,18.50
2023-04-11T02:07:11.620Z,18.45
2023-04-11T02:09:43.509Z,18.75
2023-04-11T02:12:14.136Z,17.35
2023-04-11T02:14:46.412Z,18.08
2023-04-11T02:17:20.014Z,18.33
2023-04-11T02:19:52.985Z,18.77
2023-04-11T02:22:24.930Z,19.27
2023-04-11T02:24:56.696Z,20.85
2023-04-11T02:27:27.620Z,18.92
2023-04-11T02:29:59.754Z,18.90
2023-04-11T02:32:31.918Z,21.05
2023-04-11T02:35:03.771Z,20.60
2023-04-11T02:37:36.968Z,19.77
2023-04-11T02:40:09.229Z,19.77
2023-04-11T02:42:48.808Z,20.33
2023-04-11T02:45:21.972Z,20.55
2023-04-11T02:47:53.287Z,20.30
2023-04-11T02:50:27.263Z,20.38
2023-04-11T02:53:00.688Z,20.63
2023-04-11T02:55:33.726Z,20.27
2023-04-11T02:58:05.019Z,19.77
2023-04-11T03:00:38.915Z,19.80
2023-04-11T03:03:13.330Z,19.10
2023-04-11T03:05:49.357Z,20.67
2023-04-11T03:08:26.214Z,20.20
2023-04-11T03:11:03.976Z,20.33
2023-04-11T03:13:38.468Z,20.63
2023-04-11T03:16:10.581Z,20.30
2023-04-11T03:18:43.160Z,21.05
2023-04-11T03:21:17.221Z,20.90
2023-04-11T03:23:49.175Z,22.45
2023-04-11T03:26:24.668Z,22.20
2023-04-11T03:28:57.704Z,21.45
2023-04-11T03:31:31.820Z,21.42
2023-04-11T03:34:03.595Z,21.45
2023-04-11T03:36:37.219Z,19.55
2023-04-11T03:39:09.926Z,21.52
2023-04-11T03:41:40.689Z,19.38
2023-04-11T03:44:14.016Z,19.23
2023-04-11T03:46:46.928Z,21.15
2023-04-11T03:49:20.005Z,22.60
2023-04-11T03:51:56.491Z,22.08
2023-04-11T03:54:29.761Z,23.55
2023-04-11T03:57:03.815Z,21.90
2023-04-11T03:59:38.236Z,21.90
2023-04-11T04:02:16.313Z,21.50
2023-04-11T04:05:00.081Z,19.23
2023-04-11T04:07:36.555Z,19.83
2023-04-11T04:10:22.107Z,19.55
2023-04-11T04:12:55.702Z,20.15
2023-04-11T04:15:28.822Z,20.05
2023-04-11T04:18:00.147Z,19.20
2023-04-11T04:20:51.800Z,18.90
2023-04-11T04:23:28.018Z,18.88
2023-04-11T04:26:26.023Z,19.33
2023-04-11T04:29:11.008Z,18.08
2023-04-11T04:31:57.922Z,17.88
2023-04-11T04:34:47.736Z,18.15
2023-04-11T04:37:26.635Z,16.98
2023-04-11T04:40:09.296Z,16.52
2023-04-11T04:42:51.583Z,17.50
2023-04-11T04:45:23.928Z,17.73
2023-04-11T04:47:56.006Z,18.33
2023-04-11T04:50:30.353Z,17.70
2023-04-11T04:53:01.773Z,18.80
2023-04-11T04:55:35.821Z,18.08
2023-04-11T04:58:07.751Z,20.10
2023-04-11T05:00:41.690Z,20.63
2023-04-11T05:03:23.990Z,19.63
2023-04-11T05:05:58.044Z,19.45
2023-04-11T05:08:32.000Z,18.67
2023-04-11T05:11:06.756Z,19.15
2023-04-11T05:13:40.225Z,18.67
2023-04-11T05:16:12.418Z,19.85
2023-04-11T05:18:46.955Z,20.63
2023-04-11T05:21:19.074Z,19.10
2023-04-11T05:23:54.492Z,20.27
2023-04-11T05:26:26.185Z,20.05
2023-04-11T05:28:57.704Z,20.33
2023-04-11T05:31:31.897Z,21.17
2023-04-11T05:34:04.641Z,21.25
2023-04-11T05:36:35.652Z,21.02
2023-04-11T05:39:08.281Z,20.98
2023-04-11T05:41:39.797Z,20.75
2023-04-11T05:44:10.890Z,19.30
2023-04-11T05:46:41.760Z,19.67
2023-04-11T05:49:13.608Z,19.88
2023-04-11T05:51:45.087Z,20.48
2023-04-11T05:54:33.441Z,20.75
2023-04-11T05:57:11.694Z,21.15
2023-04-11T05:59:43.923Z,21.30
2023-04-11T06:02:15.008Z,21.15
2023-04-11T06:04:47.140Z,21.75
2023-04-11T06:07:18.827Z,21.08
2023-04-11T06:09:51.352Z,21.23
2023-04-11T06:12:22.648Z,22.58
2023-04-11T06:15:02.414Z,22.60
2023-04-11T06:17:33.643Z,21.95
2023-04-11T06:20:09.390Z,21.45
2023-04-11T06:22:41.424Z,23.73
2023-04-11T06:25:12.954Z,22.63
2023-04-11T06:27:44.135Z,23.48
2023-04-11T06:30:16.480Z,23.13
2023-04-11T06:32:48.007Z,24.02
2023-04-11T06:35:24.423Z,23.85
2023-04-11T06:37:58.033Z,24.05
2023-04-11T06:40:29.517Z,24.27
2023-04-11T06:43:03.098Z,23.15
2023-04-11T06:45:34.220Z,22.23
2023-04-11T06:48:05.072Z,23.65
2023-04-11T06:50:40.687Z,23.40
2023-04-11T06:53:12.175Z,23.60
2023-04-11T06:55:43.522Z,22.50
2023-04-11T06:58:14.932Z,21.25
2023-04-11T07:00:47.034Z,24.40
2023-04-11T07:03:19.438Z,21.83
2023-04-11T07:05:51.752Z,22.02
2023-04-11T07:08:23.178Z,22.38
2023-04-11T07:10:58.577Z,22.15
2023-04-11T07:13:29.489Z,22.92
2023-04-11T07:16:00.896Z,22.35
2023-04-11T07:18:33.220Z,22.13
2023-04-11T07:21:04.910Z,22.10
2023-04-11T07:23:47.280Z,23.13
2023-04-11T07:26:20.694Z,22.23
2023-04-11T07:28:54.354Z,21.92
2023-04-11T07:31:26.986Z,22.15
2023-04-11T07:33:59.442Z,23.27
2023-04-11T07:36:30.655Z,22.85
2023-04-11T07:39:02.717Z,21.95
2023-04-11T07:41:33.825Z,22.33
2023-04-11T07:44:07.926Z,23.98
2023-04-11T07:46:39.682Z,24.00
2023-04-11T07:49:09.936Z,25.02
2023-04-11T07:51:41.771Z,21.95
2023-04-11T07:54:13.428Z,24.40
2023-04-11T07:56:45.427Z,22.38
2023-04-11T07:59:17.243Z,21.92
2023-04-11T08:01:48.828Z,23.20
2023-04-11T08:04:20.660Z,20.77
2023-04-11T08:06:53.948Z,20.95
2023-04-11T08:09:25.985Z,20.50
2023-04-11T08:12:00.959Z,19.25
2023-04-11T08:14:32.540Z,19.30
2023-04-11T08:17:05.431Z,17.25
2023-04-11T08:19:42.504Z,17.33
2023-04-11T08:22:14.498Z,21.15
2023-04-11T08:24:45.347Z,19.30
2023-04-11T08:27:16.843Z,23.83
2023-04-11T08:29:48.483Z,21.65
2023-04-11T08:32:20.621Z,20.55
2023-04-11T08:34:52.193Z,24.77
2023-04-11T08:37:23.199Z,16.95
2023-04-11T08:39:54.309Z,17.00
2023-04-11T08:42:30.725Z,17.48
2023-04-11T08:45:07.854Z,17.10
2023-04-11T08:47:40.255Z,14.75
2023-04-11T08:50:12.385Z,16.80
2023-04-11T08:52:45.916Z,16.80
2023-04-11T08:55:16.635Z,16.15
2023-04-11T08:57:47.835Z,15.63
2023-04-11T09:00:26.132Z,14.82
2023-04-11T09:03:07.779Z,14.43
2023-04-11T09:05:45.111Z,15.18
2023-04-11T09:08:17.626Z,16.45
2023-04-11T09:10:49.181Z,16.27
2023-04-11T09:13:24.945Z,13.90
2023-04-11T09:16:14.057Z,15.13
2023-04-11T09:18:47.700Z,14.45
2023-04-11T09:21:20.603Z,15.15
2023-04-11T09:23:57.827Z,15.55
2023-04-11T09:26:30.738Z,16.45
2023-04-11T09:29:02.370Z,16.80
2023-04-11T09:31:43.677Z,19.95
2023-04-11T09:34:14.462Z,16.23
2023-04-11T09:36:56.089Z,13.63
2023-04-11T09:39:30.338Z,14.20
2023-04-11T09:42:26.438Z,13.70
2023-04-11T09:44:57.569Z,15.85
2023-04-11T09:47:36.695Z,14.02
2023-04-11T09:50:08.874Z,14.20
2023-04-11T09:52:44.377Z,15.93
2023-04-11T09:55:18.245Z,17.70
2023-04-11T09:57:52.667Z,16.33
2023-04-11T10:00:26.299Z,16.25
2023-04-11T10:02:58.540Z,14.38
2023-04-11T10:05:30.853Z,15.30
2023-04-11T10:08:09.688Z,16.60
2023-04-11T10:10:40.763Z,17.02
2023-04-11T10:13:40.447Z,15.32
2023-04-11T10:16:19.452Z,20.98
2023-04-11T10:18:57.194Z,20.80
2023-04-11T10:21:33.707Z,19.65
2023-04-11T10:24:17.383Z,18.45
2023-04-11T10:26:58.703Z,19.75
2023-04-11T10:29:37.413Z,22.48
2023-04-11T10:32:20.469Z,19.08
2023-04-11T10:34:51.624Z,17.77
2023-04-11T10:37:35.079Z,20.92
2023-04-11T10:40:21.517Z,22.60
2023-04-11T10:43:22.098Z,22.55
2023-04-11T10:46:38.398Z,21.48
2023-04-11T10:49:09.478Z,21.95
2023-04-11T10:51:39.948Z,21.60
2023-04-11T10:54:26.834Z,19.75
2023-04-11T10:56:58.352Z,19.65
2023-04-11T10:59:35.572Z,21.00
2023-04-11T11:02:07.313Z,22.20
2023-04-11T11:04:40.789Z,21.63
2023-04-11T11:07:17.948Z,19.98
2023-04-11T11:09:54.526Z,24.90
2023-04-11T11:12:26.533Z,25.73
2023-04-11T11:14:58.707Z,26.25
2023-04-11T11:17:29.722Z,23.40
2023-04-11T11:20:00.814Z,29.40
2023-04-11T11:22:32.295Z,47.63
2023-04-11T11:25:13.852Z,35.55
2023-04-11T11:27:45.272Z,22.10
2023-04-11T11:30:17.703Z,25.27
2023-04-11T11:32:51.260Z,21.38
2023-04-11T11:35:22.898Z,22.70
2023-04-11T11:37:57.436Z,23.92
2023-04-11T11:40:30.019Z,24.58
2023-04-11T11:43:01.616Z,21.90
2023-04-11T11:45:34.414Z,19.60
2023-04-11T11:48:05.565Z,18.98
2023-04-11T11:50:37.725Z,21.55
2023-04-11T11:53:17.020Z,19.17
2023-04-11T11:55:48.876Z,18.33
2023-04-11T11:58:23.737Z,18.25
2023-04-11T12:00:56.131Z,19.30
2023-04-11T12:03:39.204Z,22.20
2023-04-11T12:06:14.289Z,20.10
2023-04-11T12:08:54.830Z,19.88
2023-04-11T12:11:26.575Z,19.10
2023-04-11T12:13:57.740Z,18.55
2023-04-11T12:16:29.094Z,17.00
2023-04-11T12:19:04.039Z,18.92
2023-04-11T12:21:35.503Z,20.48
2023-04-11T12:24:07.677Z,21.35
2023-04-11T12:26:45.587Z,19.02
2023-04-11T12:29:26.362Z,20.10
2023-04-11T12:31:57.042Z,18.77
2023-04-11T12:34:28.542Z,19.50
2023-04-11T12:36:59.078Z,18.95
2023-04-11T12:39:29.792Z,20.92
2023-04-11T12:42:01.685Z,22.88
2023-04-11T12:44:33.327Z,23.23
2023-04-11T12:47:04.035Z,24.27
2023-04-11T12:49:37.445Z,20.95
2023-04-11T12:52:08.521Z,20.05
2023-04-11T12:54:39.538Z,20.92
2023-04-11T12:57:10.986Z,21.27
2023-04-11T12:59:41.944Z,19.90
2023-04-11T13:02:12.837Z,21.38
2023-04-11T13:04:43.946Z,18.92
2023-04-11T13:07:14.860Z,19.35
2023-04-11T13:09:46.452Z,24.20
2023-04-11T13:12:18.167Z,22.00
2023-04-11T13:14:49.209Z,20.33
2023-04-11T13:17:20.303Z,19.40
2023-04-11T13:19:51.992Z,20.50
2023-04-11T13:22:23.334Z,20.83
2023-04-11T13:24:54.572Z,22.05
2023-04-11T13:27:25.722Z,22.45
2023-04-11T13:29:57.093Z,22.05
2023-04-11T13:32:40.017Z,21.60
2023-04-11T13:35:11.675Z,21.02
2023-04-11T13:37:43.855Z,21.52
2023-04-11T13:40:16.283Z,21.98
2023-04-11T13:42:47.104Z,21.05
2023-04-11T13:45:17.702Z,20.50
2023-04-11T13:47:49.317Z,20.88
2023-04-11T13:50:19.779Z,19.83
2023-04-11T13:52:50.106Z,20.23
2023-04-11T13:55:21.258Z,19.58
2023-04-11T13:57:52.161Z,18.42
2023-04-11T14:00:23.843Z,19.33
2023-04-11T14:02:55.170Z,19.67
2023-04-11T14:05:27.972Z,19.52
2023-04-11T14:07:59.204Z,18.67
2023-04-11T14:10:36.523Z,20.13
2023-04-11T14:13:07.874Z,19.92
2023-04-11T14:15:39.257Z,19.05
2023-04-11T14:18:10.113Z,19.23
2023-04-11T14:21:02.110Z,18.98
2023-04-11T14:23:33.366Z,19.42
2023-04-11T14:26:04.094Z,19.00
2023-04-11T14:28:35.037Z,19.13
2023-04-11T14:31:06.656Z,19.83
2023-04-11T14:33:41.318Z,19.73
2023-04-11T14:36:12.840Z,19.23
2023-04-11T14:38:43.060Z,19.35
2023-04-11T14:41:14.300Z,19.15
2023-04-11T14:43:45.607Z,19.98
2023-04-11T14:46:16.885Z,18.42
2023-04-11T14:48:48.266Z,18.30
2023-04-11T14:51:18.907Z,18.50
2023-04-11T14:53:55.902Z,18.60
2023-04-11T14:56:27.825Z,20.23
2023-04-11T14:58:58.598Z,19.35
2023-04-11T15:01:29.310Z,19.90
2023-04-11T15:04:00.485Z,19.30
2023-04-11T15:06:32.627Z,19.05
2023-04-11T15:09:05.608Z,19.08
2023-04-11T15:11:36.923Z,18.08
2023-04-11T15:14:07.370Z,17.75
2023-04-11T15:16:38.389Z,18.35
2023-04-11T15:19:12.192Z,18.20
2023-04-11T15:21:43.140Z,18.10
2023-04-11T15:24:14.066Z,18.77
2023-04-11T15:26:48.092Z,18.73
2023-04-11T15:29:18.548Z,17.88
2023-04-11T15:31:49.354Z,17.45
2023-04-11T15:34:21.583Z,18.42
2023-04-11T15:36:52.608Z,17.00
2023-04-11T15:39:23.378Z,18.48
2023-04-11T15:41:54.020Z,18.17
2023-04-11T15:44:24.692Z,18.10
2023-04-11T15:46:55.581Z,17.40
2023-04-11T15:49:27.562Z,18.58
2023-04-11T15:51:58.564Z,17.65
2023-04-11T15:54:29.577Z,18.55
2023-04-11T15:57:00.540Z,17.52
2023-04-11T15:59:31.680Z,17.92
2023-04-11T16:02:02.768Z,17.42
2023-04-11T16:04:39.328Z,17.85
2023-04-11T16:07:10.865Z,19.13
2023-04-11T16:09:41.733Z,19.08
2023-04-11T16:12:12.387Z,18.15
2023-04-11T16:14:43.512Z,18.05
2023-04-11T16:17:20.938Z,17.60
2023-04-11T16:19:54.916Z,18.73
2023-04-11T16:22:26.375Z,17.13
2023-04-11T16:24:58.039Z,18.95
2023-04-11T16:27:29.258Z,18.48
2023-04-11T16:30:02.678Z,18.40
2023-04-11T16:32:35.441Z,19.08
2023-04-11T16:35:07.251Z,19.40
2023-04-11T16:37:41.864Z,19.05
2023-04-11T16:40:14.406Z,19.27
2023-04-11T16:42:46.310Z,18.88
2023-04-11T16:45:17.443Z,19.58
2023-04-11T16:47:49.077Z,18.92
2023-04-11T16:50:20.006Z,20.40
2023-04-11T16:52:50.430Z,20.83
2023-04-11T16:55:20.666Z,20.70
2023-04-11T16:57:51.383Z,20.67
2023-04-11T17:00:23.261Z,21.05
2023-04-11T17:02:54.617Z,21.00
2023-04-11T17:05:25.319Z,21.30
2023-04-11T17:07:56.878Z,21.95
2023-04-11T17:10:29.103Z,22.10
2023-04-11T17:13:00.758Z,22.67
2023-04-11T17:15:32.218Z,22.95
2023-04-11T17:18:15.580Z,22.88
2023-04-11T17:20:47.761Z,22.48
2023-04-11T17:23:20.582Z,24.30
2023-04-11T17:25:59.195Z,23.35
2023-04-11T17:28:29.752Z,22.85
2023-04-11T17:31:01.042Z,22.85
2023-04-11T17:33:31.507Z,21.95
2023-04-11T17:36:02.388Z,22.33
2023-04-11T17:38:38.025Z,21.45
2023-04-11T17:41:15.101Z,22.17
2023-04-11T17:43:47.218Z,22.38
2023-04-11T17:46:19.121Z,21.17
2023-04-11T17:48:50.475Z,19.75
2023-04-11T17:51:21.160Z,21.15
2023-04-11T17:53:51.831Z,20.83
2023-04-11T17:56:22.187Z,20.00
2023-04-11T17:58:52.891Z,19.45
2023-04-11T18:01:23.942Z,20.85
2023-04-11T18:03:55.525Z,20.05
2023-04-11T18:06:31.335Z,20.95
2023-04-11T18:09:03.498Z,20.55
2023-04-11T18:11:35.988Z,19.38
2023-04-11T18:14:07.028Z,20.33
2023-04-11T18:16:39.843Z,20.10
2023-04-11T18:19:11.000Z,19.63
2023-04-11T18:21:42.040Z,19.83
2023-04-11T18:24:12.921Z,20.70
2023-04-11T18:26:43.718Z,19.85
2023-04-11T18:29:14.459Z,19.00
2023-04-11T18:31:45.449Z,18.75
2023-04-11T18:34:19.073Z,18.80
2023-04-11T18:36:50.224Z,18.35
2023-04-11T18:39:23.016Z,18.17
2023-04-11T18:41:55.270Z,18.65
2023-04-11T18:44:26.547Z,18.13
2023-04-11T18:47:00.475Z,17.52
2023-04-11T18:49:33.199Z,17.38
2023-04-11T18:52:05.094Z,17.20
2023-04-11T18:54:37.796Z,18.08
2023-04-11T18:57:10.118Z,19.63
2023-04-11T18:59:43.938Z,18.67
2023-04-11T19:02:15.438Z,18.70
2023-04-11T19:04:50.857Z,19.92
2023-04-11T19:07:22.827Z,19.67
2023-04-11T19:09:54.036Z,19.67
2023-04-11T19:12:25.103Z,19.35
2023-04-11T19:14:56.872Z,19.10
2023-04-11T19:17:28.298Z,18.20
2023-04-11T19:19:59.519Z,19.30
2023-04-11T19:22:30.066Z,18.05
2023-04-11T19:25:03.686Z,18.42
2023-04-11T19:27:35.299Z,18.92
2023-04-11T19:30:09.511Z,17.95
2023-04-11T19:32:44.315Z,17.52
2023-04-11T19:35:16.855Z,18.35
2023-04-11T19:37:48.250Z,18.00
2023-04-11T19:40:20.050Z,18.85
2023-04-11T19:42:55.090Z,18.20
2023-04-11T19:45:26.018Z,19.98
2023-04-11T19:47:57.703Z,19.70
2023-04-11T19:50:28.904Z,19.23
2023-04-11T19:53:01.543Z,20.02
2023-04-11T19:55:32.415Z,18.08
2023-04-11T19:58:03.979Z,18.33
2023-04-11T20:00:37.208Z,17.48
2023-04-11T20:03:17.201Z,16.77
2023-04-11T20:05:48.140Z,18.30
2023-04-11T20:08:19.912Z,19.35
2023-04-11T20:10:51.320Z,18.33
2023-04-11T20:13:23.330Z,19.85
2023-04-11T20:15:55.173Z,18.63
2023-04-11T20:18:27.244Z,18.58
2023-04-11T20:20:58.268Z,18.63
2023-04-11T20:23:31.635Z,18.77
2023-04-11T20:26:02.236Z,18.40
2023-04-11T20:28:32.581Z,20.38
2023-04-11T20:31:05.207Z,18.83
2023-04-11T20:33:36.111Z,19.10
2023-04-11T20:36:07.569Z,19.85
2023-04-11T20:38:39.564Z,20.08
2023-04-11T20:41:11.155Z,19.55
2023-04-11T20:43:44.905Z,19.35
2023-04-11T20:46:15.611Z,19.38
2023-04-11T20:48:46.890Z,20.38
2023-04-11T20:51:20.517Z,20.20
2023-04-11T20:53:51.829Z,21.58
2023-04-11T20:56:24.719Z,20.70
2023-04-11T20:58:57.963Z,19.95
2023-04-11T21:01:34.397Z,21.10
2023-04-11T21:04:05.335Z,20.05
2023-04-11T21:06:37.000Z,19.90
2023-04-11T21:09:16.815Z,21.10
2023-04-11T21:11:48.297Z,20.25
2023-04-11T21:14:19.226Z,19.92
2023-04-11T21:16:51.230Z,20.70
2023-04-11T21:19:22.743Z,19.50
2023-04-11T21:21:53.782Z,19.58
2023-04-11T21:24:24.803Z,20.00
2023-04-11T21:26:55.694Z,21.00
2023-04-11T21:29:28.491Z,19.63
2023-04-11T21:31:59.128Z,25.63
2023-04-11T21:34:30.259Z,19.45
2023-04-11T21:37:01.466Z,19.50
2023-04-11T21:39:32.540Z,20.50
2023-04-11T21:42:03.862Z,20.33
2023-04-11T21:44:34.924Z,20.80
2023-04-11T21:47:06.568Z,19.88
2023-04-11T21:49:37.621Z,20.15
2023-04-11T21:52:09.689Z,20.05
2023-04-11T21:54:41.413Z,19.92
2023-04-11T21:57:13.271Z,20.05
2023-04-11T21:59:47.401Z,19.75
2023-04-11T22:02:18.941Z,20.67
2023-04-11T22:05:04.910Z,20.70
2023-04-11T22:07:50.318Z,20.65
2023-04-11T22:10:24.342Z,20.95
2023-04-11T22:12:58.726Z,20.75
2023-04-11T22:15:34.542Z,20.65
2023-04-11T22:18:10.459Z,21.25
2023-04-11T22:20:44.874Z,21.20
2023-04-11T22:23:18.824Z,22.85
2023-04-11T22:25:58.964Z,22.27
2023-04-11T22:28:30.542Z,22.40
2023-04-11T22:31:03.339Z,22.10
2023-04-11T22:33:34.942Z,22.77
2023-04-11T22:36:10.217Z,21.92
2023-04-11T22:38:43.976Z,21.27
2023-04-11T22:41:19.576Z,22.40
2023-04-11T22:43:51.612Z,22.75
2023-04-11T22:46:27.003Z,24.00
2023-04-11T22:49:01.840Z,22.55
2023-04-11T22:51:34.774Z,24.25
2023-04-11T22:54:06.912Z,23.63
2023-04-11T22:56:38.300Z,23.20
2023-04-11T22:59:09.257Z,23.75
2023-04-11T23:01:40.828Z,22.77
2023-04-11T23:04:12.213Z,24.38
2023-04-11T23:06:44.678Z,22.20
2023-04-11T23:09:16.336Z,22.25
2023-04-11T23:11:55.163Z,24.23
2023-04-11T23:14:34.193Z,25.02
2023-04-11T23:17:05.387Z,24.17
2023-04-11T23:19:37.741Z,25.25
2023-04-11T23:22:08.558Z,25.10
2023-04-11T23:24:39.273Z,24.20
2023-04-11T23:27:10.944Z,24.25
2023-04-11T23:29:44.128Z,23.80
2023-04-11T23:32:15.414Z,24.70
2023-04-11T23:34:47.603Z,23.95
2023-04-11T23:37:19.604Z,25.85
2023-04-11T23:39:51.097Z,26.02
2023-04-11T23:42:22.815Z,24.77
2023-04-11T23:44:54.595Z,25.25
2023-04-11T23:47:25.458Z,26.35
2023-04-11T23:49:57.343Z,26.27
2023-04-11T23:52:30.552Z,26.08
2023-04-11T23:55:02.372Z,24.58
2023-04-11T23:57:33.283Z,24.90
